sensor_id;sensor_type;location;lat;lon;timestamp;P1;durP1;ratioP1;P2;durP2;ratioP2
10535;SDS011;5316;49.538;8.352;2023-08-20T00:01:29;4.25;;;3.85;;
10535;SDS011;5316;49.538;8.352;2023-08-20T00:03:57;5.43;;;4.43;;
10535;SDS011;5316;49.538;8.352;2023-08-20T00:06:24;4.32;;;4.07;;
10535;SDS011;5316;49.538;8.352;2023-08-20T00:08:51;4.55;;;4.20;;
10535;SDS011;5316;49.538;8.352;2023-08-20T00:11:18;5.20;;;4.90;;
10535;SDS011;5316;49.538;8.352;2023-08-20T00:13:46;5.28;;;4.70;;
10535;SDS011;5316;49.538;8.352;2023-08-20T00:16:13;5.05;;;4.55;;
10535;SDS011;5316;49.538;8.352;2023-08-20T00:18:42;5.22;;;4.80;;
10535;SDS011;5316;49.538;8.352;2023-08-20T00:21:09;6.20;;;5.25;;
10535;SDS011;5316;49.538;8.352;2023-08-20T00:23:40;6.15;;;5.28;;
10535;SDS011;5316;49.538;8.352;2023-08-20T00:26:07;4.63;;;4.25;;
10535;SDS011;5316;49.538;8.352;2023-08-20T00:28:35;4.78;;;4.38;;
10535;SDS011;5316;49.538;8.352;2023-08-20T00:31:03;5.32;;;4.80;;
10535;SDS011;5316;49.538;8.352;2023-08-20T00:33:31;6.50;;;4.75;;
10535;SDS011;5316;49.538;8.352;2023-08-20T00:36:00;5.72;;;5.13;;
10535;SDS011;5316;49.538;8.352;2023-08-20T00:38:27;5.35;;;4.85;;
10535;SDS011;5316;49.538;8.352;2023-08-20T00:40:54;5.55;;;4.80;;
10535;SDS011;5316;49.538;8.352;2023-08-20T00:43:21;5.03;;;4.60;;
10535;SDS011;5316;49.538;8.352;2023-08-20T00:45:48;5.53;;;5.03;;
10535;SDS011;5316;49.538;8.352;2023-08-20T00:48:15;6.35;;;4.75;;
10535;SDS011;5316;49.538;8.352;2023-08-20T00:50:43;5.35;;;4.88;;
10535;SDS011;5316;49.538;8.352;2023-08-20T00:53:12;6.00;;;5.43;;
10535;SDS011;5316;49.538;8.352;2023-08-20T00:55:41;7.25;;;5.05;;
10535;SDS011;5316;49.538;8.352;2023-08-20T00:58:09;6.97;;;5.15;;
10535;SDS011;5316;49.538;8.352;2023-08-20T01:00:37;6.35;;;5.75;;
10535;SDS011;5316;49.538;8.352;2023-08-20T01:03:04;5.20;;;4.72;;
10535;SDS011;5316;49.538;8.352;2023-08-20T01:05:31;5.13;;;4.65;;
10535;SDS011;5316;49.538;8.352;2023-08-20T01:08:04;6.07;;;5.20;;
10535;SDS011;5316;49.538;8.352;2023-08-20T01:10:46;5.30;;;4.90;;
10535;SDS011;5316;49.538;8.352;2023-08-20T01:13:17;4.65;;;4.35;;
10535;SDS011;5316;49.538;8.352;2023-08-20T01:15:45;5.07;;;4.68;;
10535;SDS011;5316;49.538;8.352;2023-08-20T01:18:12;5.28;;;4.78;;
10535;SDS011;5316;49.538;8.352;2023-08-20T01:20:39;4.85;;;4.57;;
10535;SDS011;5316;49.538;8.352;2023-08-20T01:23:36;5.82;;;5.28;;
10535;SDS011;5316;49.538;8.352;2023-08-20T01:26:25;6.18;;;5.40;;
10535;SDS011;5316;49.538;8.352;2023-08-20T01:29:15;5.47;;;4.78;;
10535;SDS011;5316;49.538;8.352;2023-08-20T01:31:43;6.43;;;5.25;;
10535;SDS011;5316;49.538;8.352;2023-08-20T01:34:11;5.88;;;5.00;;
10535;SDS011;5316;49.538;8.352;2023-08-20T01:36:38;5.57;;;5.13;;
10535;SDS011;5316;49.538;8.352;2023-08-20T01:39:05;6.30;;;5.70;;
10535;SDS011;5316;49.538;8.352;2023-08-20T01:41:33;5.85;;;5.25;;
10535;SDS011;5316;49.538;8.352;2023-08-20T01:44:00;5.90;;;5.43;;
10535;SDS011;5316;49.538;8.352;2023-08-20T01:46:28;6.35;;;5.72;;
10535;SDS011;5316;49.538;8.352;2023-08-20T01:48:55;6.07;;;5.45;;
10535;SDS011;5316;49.538;8.352;2023-08-20T01:51:22;7.30;;;5.15;;
10535;SDS011;5316;49.538;8.352;2023-08-20T01:53:49;5.35;;;4.88;;
10535;SDS011;5316;49.538;8.352;2023-08-20T01:56:16;5.47;;;5.03;;
10535;SDS011;5316;49.538;8.352;2023-08-20T01:58:44;5.30;;;4.90;;
10535;SDS011;5316;49.538;8.352;2023-08-20T02:01:12;5.25;;;4.85;;
10535;SDS011;5316;49.538;8.352;2023-08-20T02:03:41;5.00;;;4.65;;
10535;SDS011;5316;49.538;8.352;2023-08-20T02:06:08;5.50;;;5.10;;
10535;SDS011;5316;49.538;8.352;2023-08-20T02:08:35;6.07;;;5.57;;
10535;SDS011;5316;49.538;8.352;2023-08-20T02:11:03;7.63;;;5.93;;
10535;SDS011;5316;49.538;8.352;2023-08-20T02:13:30;9.73;;;6.30;;
10535;SDS011;5316;49.538;8.352;2023-08-20T02:15:58;6.13;;;5.68;;
10535;SDS011;5316;49.538;8.352;2023-08-20T02:18:26;6.22;;;5.72;;
10535;SDS011;5316;49.538;8.352;2023-08-20T02:20:55;7.85;;;5.82;;
10535;SDS011;5316;49.538;8.352;2023-08-20T02:23:22;8.35;;;5.32;;
10535;SDS011;5316;49.538;8.352;2023-08-20T02:25:49;5.97;;;5.40;;
10535;SDS011;5316;49.538;8.352;2023-08-20T02:28:16;6.80;;;6.28;;
10535;SDS011;5316;49.538;8.352;2023-08-20T02:30:44;6.38;;;5.78;;
10535;SDS011;5316;49.538;8.352;2023-08-20T02:33:13;6.32;;;5.88;;
10535;SDS011;5316;49.538;8.352;2023-08-20T02:35:41;7.35;;;6.57;;
10535;SDS011;5316;49.538;8.352;2023-08-20T02:38:10;7.78;;;7.07;;
10535;SDS011;5316;49.538;8.352;2023-08-20T02:40:41;7.22;;;6.68;;
10535;SDS011;5316;49.538;8.352;2023-08-20T02:43:08;6.97;;;6.45;;
10535;SDS011;5316;49.538;8.352;2023-08-20T02:45:39;7.45;;;6.78;;
10535;SDS011;5316;49.538;8.352;2023-08-20T02:48:08;7.68;;;7.00;;
10535;SDS011;5316;49.538;8.352;2023-08-20T02:50:35;9.13;;;6.40;;
10535;SDS011;5316;49.538;8.352;2023-08-20T02:53:02;7.65;;;6.95;;
10535;SDS011;5316;49.538;8.352;2023-08-20T02:55:31;7.32;;;6.68;;
10535;SDS011;5316;49.538;8.352;2023-08-20T02:57:59;7.63;;;6.95;;
10535;SDS011;5316;49.538;8.352;2023-08-20T03:00:27;7.93;;;7.22;;
10535;SDS011;5316;49.538;8.352;2023-08-20T03:02:56;8.40;;;7.70;;
10535;SDS011;5316;49.538;8.352;2023-08-20T03:05:24;8.45;;;7.60;;
10535;SDS011;5316;49.538;8.352;2023-08-20T03:07:51;9.65;;;7.30;;
10535;SDS011;5316;49.538;8.352;2023-08-20T03:10:18;8.00;;;7.32;;
10535;SDS011;5316;49.538;8.352;2023-08-20T03:12:46;7.50;;;6.78;;
10535;SDS011;5316;49.538;8.352;2023-08-20T03:15:13;7.43;;;6.85;;
10535;SDS011;5316;49.538;8.352;2023-08-20T03:17:40;6.95;;;6.45;;
10535;SDS011;5316;49.538;8.352;2023-08-20T03:20:08;8.10;;;6.68;;
10535;SDS011;5316;49.538;8.352;2023-08-20T03:22:36;7.13;;;6.45;;
10535;SDS011;5316;49.538;8.352;2023-08-20T03:25:04;7.13;;;6.53;;
10535;SDS011;5316;49.538;8.352;2023-08-20T03:27:32;6.78;;;6.07;;
10535;SDS011;5316;49.538;8.352;2023-08-20T03:30:00;6.80;;;6.30;;
10535;SDS011;5316;49.538;8.352;2023-08-20T03:32:28;6.20;;;5.75;;
10535;SDS011;5316;49.538;8.352;2023-08-20T03:34:55;7.10;;;6.60;;
10535;SDS011;5316;49.538;8.352;2023-08-20T03:37:24;6.60;;;5.72;;
10535;SDS011;5316;49.538;8.352;2023-08-20T03:39:51;6.38;;;5.72;;
10535;SDS011;5316;49.538;8.352;2023-08-20T03:42:18;7.25;;;6.68;;
10535;SDS011;5316;49.538;8.352;2023-08-20T03:44:45;6.60;;;6.20;;
10535;SDS011;5316;49.538;8.352;2023-08-20T03:47:13;7.22;;;6.55;;
10535;SDS011;5316;49.538;8.352;2023-08-20T03:49:40;7.45;;;6.85;;
10535;SDS011;5316;49.538;8.352;2023-08-20T03:52:07;6.72;;;6.15;;
10535;SDS011;5316;49.538;8.352;2023-08-20T03:54:34;7.95;;;6.95;;
10535;SDS011;5316;49.538;8.352;2023-08-20T03:57:01;8.38;;;7.30;;
10535;SDS011;5316;49.538;8.352;2023-08-20T03:59:28;8.00;;;7.28;;
10535;SDS011;5316;49.538;8.352;2023-08-20T04:01:56;8.60;;;7.15;;
10535;SDS011;5316;49.538;8.352;2023-08-20T04:04:26;8.15;;;7.40;;
10535;SDS011;5316;49.538;8.352;2023-08-20T04:06:53;8.93;;;7.65;;
10535;SDS011;5316;49.538;8.352;2023-08-20T04:09:21;8.00;;;7.40;;
10535;SDS011;5316;49.538;8.352;2023-08-20T04:11:48;9.02;;;7.47;;
10535;SDS011;5316;49.538;8.352;2023-08-20T04:14:15;8.00;;;7.25;;
10535;SDS011;5316;49.538;8.352;2023-08-20T04:16:42;9.27;;;8.18;;
10535;SDS011;5316;49.538;8.352;2023-08-20T04:19:09;7.45;;;6.85;;
10535;SDS011;5316;49.538;8.352;2023-08-20T04:21:37;9.50;;;8.10;;
10535;SDS011;5316;49.538;8.352;2023-08-20T04:24:04;8.07;;;7.30;;
10535;SDS011;5316;49.538;8.352;2023-08-20T04:26:32;8.65;;;7.80;;
10535;SDS011;5316;49.538;8.352;2023-08-20T04:28:59;8.57;;;7.60;;
10535;SDS011;5316;49.538;8.352;2023-08-20T04:31:26;8.13;;;7.22;;
10535;SDS011;5316;49.538;8.352;2023-08-20T04:33:54;8.98;;;7.45;;
10535;SDS011;5316;49.538;8.352;2023-08-20T04:36:21;8.18;;;7.38;;
10535;SDS011;5316;49.538;8.352;2023-08-20T04:38:49;8.02;;;7.22;;
10535;SDS011;5316;49.538;8.352;2023-08-20T04:41:17;8.07;;;7.38;;
10535;SDS011;5316;49.538;8.352;2023-08-20T04:43:43;8.75;;;7.95;;
10535;SDS011;5316;49.538;8.352;2023-08-20T04:46:10;8.45;;;7.75;;
10535;SDS011;5316;49.538;8.352;2023-08-20T04:48:37;8.43;;;7.20;;
10535;SDS011;5316;49.538;8.352;2023-08-20T04:51:05;9.75;;;7.65;;
10535;SDS011;5316;49.538;8.352;2023-08-20T04:53:32;8.70;;;7.75;;
10535;SDS011;5316;49.538;8.352;2023-08-20T04:58:31;9.30;;;6.85;;
10535;SDS011;5316;49.538;8.352;2023-08-20T05:00:58;7.95;;;7.18;;
10535;SDS011;5316;49.538;8.352;2023-08-20T05:03:25;9.52;;;6.90;;
10535;SDS011;5316;49.538;8.352;2023-08-20T05:05:52;7.68;;;7.07;;
10535;SDS011;5316;49.538;8.352;2023-08-20T05:08:20;7.00;;;6.43;;
10535;SDS011;5316;49.538;8.352;2023-08-20T05:10:46;6.93;;;6.30;;
10535;SDS011;5316;49.538;8.352;2023-08-20T05:13:15;7.10;;;6.43;;
10535;SDS011;5316;49.538;8.352;2023-08-20T05:15:44;6.43;;;5.90;;
10535;SDS011;5316;49.538;8.352;2023-08-20T05:18:13;7.07;;;6.50;;
10535;SDS011;5316;49.538;8.352;2023-08-20T05:20:40;6.55;;;5.93;;
10535;SDS011;5316;49.538;8.352;2023-08-20T05:23:07;7.28;;;6.40;;
10535;SDS011;5316;49.538;8.352;2023-08-20T05:25:34;7.60;;;6.65;;
10535;SDS011;5316;49.538;8.352;2023-08-20T05:28:01;6.97;;;6.28;;
10535;SDS011;5316;49.538;8.352;2023-08-20T05:30:28;7.65;;;6.30;;
10535;SDS011;5316;49.538;8.352;2023-08-20T05:32:57;5.97;;;5.55;;
10535;SDS011;5316;49.538;8.352;2023-08-20T05:35:24;6.55;;;5.95;;
10535;SDS011;5316;49.538;8.352;2023-08-20T05:37:51;6.35;;;5.80;;
10535;SDS011;5316;49.538;8.352;2023-08-20T05:40:18;6.93;;;5.75;;
10535;SDS011;5316;49.538;8.352;2023-08-20T05:42:45;6.57;;;5.97;;
10535;SDS011;5316;49.538;8.352;2023-08-20T05:45:12;6.47;;;5.90;;
10535;SDS011;5316;49.538;8.352;2023-08-20T05:47:39;6.07;;;5.57;;
10535;SDS011;5316;49.538;8.352;2023-08-20T05:50:08;5.90;;;5.32;;
10535;SDS011;5316;49.538;8.352;2023-08-20T05:52:35;5.97;;;5.45;;
10535;SDS011;5316;49.538;8.352;2023-08-20T05:55:02;6.10;;;5.50;;
10535;SDS011;5316;49.538;8.352;2023-08-20T05:57:30;6.63;;;5.65;;
10535;SDS011;5316;49.538;8.352;2023-08-20T05:59:57;6.28;;;5.57;;
10535;SDS011;5316;49.538;8.352;2023-08-20T06:02:25;5.50;;;4.95;;
10535;SDS011;5316;49.538;8.352;2023-08-20T06:04:51;6.18;;;5.32;;
10535;SDS011;5316;49.538;8.352;2023-08-20T06:07:20;5.82;;;5.40;;
10535;SDS011;5316;49.538;8.352;2023-08-20T06:09:46;5.72;;;5.20;;
10535;SDS011;5316;49.538;8.352;2023-08-20T06:12:15;5.97;;;5.38;;
10535;SDS011;5316;49.538;8.352;2023-08-20T06:14:42;7.60;;;5.80;;
10535;SDS011;5316;49.538;8.352;2023-08-20T06:17:08;6.63;;;5.90;;
10535;SDS011;5316;49.538;8.352;2023-08-20T06:19:35;6.35;;;5.70;;
10535;SDS011;5316;49.538;8.352;2023-08-20T06:22:02;6.57;;;5.40;;
10535;SDS011;5316;49.538;8.352;2023-08-20T06:24:31;6.22;;;5.50;;
10535;SDS011;5316;49.538;8.352;2023-08-20T06:26:57;7.47;;;5.40;;
10535;SDS011;5316;49.538;8.352;2023-08-20T06:29:24;5.78;;;5.20;;
10535;SDS011;5316;49.538;8.352;2023-08-20T06:31:51;6.13;;;5.50;;
10535;SDS011;5316;49.538;8.352;2023-08-20T06:34:18;5.18;;;4.80;;
10535;SDS011;5316;49.538;8.352;2023-08-20T06:36:45;5.55;;;5.13;;
10535;SDS011;5316;49.538;8.352;2023-08-20T06:39:12;6.05;;;5.25;;
10535;SDS011;5316;49.538;8.352;2023-08-20T06:41:41;6.75;;;5.13;;
10535;SDS011;5316;49.538;8.352;2023-08-20T06:44:08;6.10;;;4.95;;
10535;SDS011;5316;49.538;8.352;2023-08-20T06:46:35;5.18;;;4.68;;
10535;SDS011;5316;49.538;8.352;2023-08-20T06:49:02;4.85;;;4.35;;
10535;SDS011;5316;49.538;8.352;2023-08-20T06:51:29;5.25;;;4.75;;
10535;SDS011;5316;49.538;8.352;2023-08-20T06:53:56;6.28;;;4.75;;
10535;SDS011;5316;49.538;8.352;2023-08-20T06:56:23;4.93;;;4.40;;
10535;SDS011;5316;49.538;8.352;2023-08-20T06:58:51;8.70;;;4.90;;
10535;SDS011;5316;49.538;8.352;2023-08-20T07:01:19;6.35;;;5.72;;
10535;SDS011;5316;49.538;8.352;2023-08-20T07:03:46;8.55;;;5.13;;
10535;SDS011;5316;49.538;8.352;2023-08-20T07:06:13;6.00;;;5.32;;
10535;SDS011;5316;49.538;8.352;2023-08-20T07:08:41;5.50;;;4.95;;
10535;SDS011;5316;49.538;8.352;2023-08-20T07:11:08;5.57;;;4.93;;
10535;SDS011;5316;49.538;8.352;2023-08-20T07:13:35;5.72;;;5.18;;
10535;SDS011;5316;49.538;8.352;2023-08-20T07:16:03;9.32;;;8.05;;
10535;SDS011;5316;49.538;8.352;2023-08-20T07:18:30;13.90;;;11.57;;
10535;SDS011;5316;49.538;8.352;2023-08-20T07:20:57;7.72;;;6.55;;
10535;SDS011;5316;49.538;8.352;2023-08-20T07:23:24;7.65;;;5.82;;
10535;SDS011;5316;49.538;8.352;2023-08-20T07:25:51;5.90;;;5.38;;
10535;SDS011;5316;49.538;8.352;2023-08-20T07:28:29;6.35;;;5.35;;
10535;SDS011;5316;49.538;8.352;2023-08-20T07:31:11;6.13;;;5.57;;
10535;SDS011;5316;49.538;8.352;2023-08-20T07:33:38;6.50;;;5.90;;
10535;SDS011;5316;49.538;8.352;2023-08-20T07:36:05;6.38;;;5.88;;
10535;SDS011;5316;49.538;8.352;2023-08-20T07:38:32;6.47;;;5.97;;
10535;SDS011;5316;49.538;8.352;2023-08-20T07:40:58;6.63;;;5.80;;
10535;SDS011;5316;49.538;8.352;2023-08-20T07:43:25;6.63;;;5.95;;
10535;SDS011;5316;49.538;8.352;2023-08-20T07:45:52;5.50;;;5.00;;
10535;SDS011;5316;49.538;8.352;2023-08-20T07:48:21;6.63;;;5.95;;
10535;SDS011;5316;49.538;8.352;2023-08-20T07:50:54;7.75;;;5.85;;
10535;SDS011;5316;49.538;8.352;2023-08-20T08:00:02;6.13;;;5.53;;
10535;SDS011;5316;49.538;8.352;2023-08-20T08:03:18;7.78;;;5.20;;
10535;SDS011;5316;49.538;8.352;2023-08-20T08:16:08;5.35;;;4.85;;
10535;SDS011;5316;49.538;8.352;2023-08-20T08:19:54;8.45;;;4.82;;
10535;SDS011;5316;49.538;8.352;2023-08-20T08:22:48;7.68;;;4.85;;
10535;SDS011;5316;49.538;8.352;2023-08-20T08:39:38;6.28;;;5.10;;
10535;SDS011;5316;49.538;8.352;2023-08-20T08:42:24;6.05;;;5.50;;
10535;SDS011;5316;49.538;8.352;2023-08-20T08:45:22;5.00;;;4.30;;
10535;SDS011;5316;49.538;8.352;2023-08-20T08:48:11;5.05;;;4.40;;
10535;SDS011;5316;49.538;8.352;2023-08-20T08:54:07;6.15;;;4.82;;
10535;SDS011;5316;49.538;8.352;2023-08-20T08:56:44;4.82;;;4.43;;
10535;SDS011;5316;49.538;8.352;2023-08-20T08:59:59;8.13;;;5.10;;
10535;SDS011;5316;49.538;8.352;2023-08-20T09:02:57;5.43;;;4.97;;
10535;SDS011;5316;49.538;8.352;2023-08-20T09:05:49;4.65;;;4.25;;
10535;SDS011;5316;49.538;8.352;2023-08-20T09:12:44;5.55;;;5.00;;
10535;SDS011;5316;49.538;8.352;2023-08-20T09:15:44;5.20;;;4.65;;
10535;SDS011;5316;49.538;8.352;2023-08-20T09:18:45;6.05;;;5.57;;
10535;SDS011;5316;49.538;8.352;2023-08-20T09:21:33;4.55;;;4.15;;
10535;SDS011;5316;49.538;8.352;2023-08-20T09:24:06;5.00;;;4.55;;
10535;SDS011;5316;49.538;8.352;2023-08-20T09:29:28;4.13;;;3.83;;
10535;SDS011;5316;49.538;8.352;2023-08-20T09:35:01;5.70;;;4.47;;
10535;SDS011;5316;49.538;8.352;2023-08-20T09:37:32;5.28;;;3.85;;
10535;SDS011;5316;49.538;8.352;2023-08-20T09:40:15;4.88;;;4.43;;
10535;SDS011;5316;49.538;8.352;2023-08-20T09:42:44;4.65;;;4.20;;
10535;SDS011;5316;49.538;8.352;2023-08-20T09:48:20;4.95;;;4.53;;
10535;SDS011;5316;49.538;8.352;2023-08-20T09:51:00;4.50;;;4.10;;
10535;SDS011;5316;49.538;8.352;2023-08-20T09:53:37;4.65;;;4.25;;
10535;SDS011;5316;49.538;8.352;2023-08-20T09:56:14;3.90;;;3.55;;
10535;SDS011;5316;49.538;8.352;2023-08-20T09:58:54;4.15;;;3.85;;
10535;SDS011;5316;49.538;8.352;2023-08-20T10:01:56;4.03;;;3.70;;
10535;SDS011;5316;49.538;8.352;2023-08-20T10:07:50;4.57;;;4.20;;
10535;SDS011;5316;49.538;8.352;2023-08-20T10:13:58;4.95;;;3.70;;
10535;SDS011;5316;49.538;8.352;2023-08-20T10:16:48;3.88;;;3.10;;
10535;SDS011;5316;49.538;8.352;2023-08-20T10:19:19;3.22;;;3.03;;
10535;SDS011;5316;49.538;8.352;2023-08-20T10:21:59;3.67;;;3.40;;
10535;SDS011;5316;49.538;8.352;2023-08-20T10:24:39;3.45;;;3.20;;
10535;SDS011;5316;49.538;8.352;2023-08-20T10:27:28;3.97;;;3.67;;
10535;SDS011;5316;49.538;8.352;2023-08-20T10:30:07;4.57;;;4.18;;
10535;SDS011;5316;49.538;8.352;2023-08-20T10:32:49;3.75;;;3.53;;
10535;SDS011;5316;49.538;8.352;2023-08-20T10:35:22;3.80;;;3.50;;
10535;SDS011;5316;49.538;8.352;2023-08-20T10:41:08;4.15;;;3.85;;
10535;SDS011;5316;49.538;8.352;2023-08-20T10:43:57;4.68;;;4.28;;
10535;SDS011;5316;49.538;8.352;2023-08-20T10:46:36;4.78;;;3.10;;
10535;SDS011;5316;49.538;8.352;2023-08-20T10:49:34;4.13;;;2.85;;
10535;SDS011;5316;49.538;8.352;2023-08-20T10:52:10;3.45;;;3.25;;
10535;SDS011;5316;49.538;8.352;2023-08-20T10:55:16;3.35;;;2.80;;
10535;SDS011;5316;49.538;8.352;2023-08-20T20:55:15;4.65;;;4.18;;
10535;SDS011;5316;49.538;8.352;2023-08-20T20:57:46;3.65;;;3.35;;
10535;SDS011;5316;49.538;8.352;2023-08-20T21:00:18;13.77;;;11.43;;
10535;SDS011;5316;49.538;8.352;2023-08-20T21:02:50;5.05;;;3.90;;
10535;SDS011;5316;49.538;8.352;2023-08-20T21:05:30;4.78;;;3.58;;
10535;SDS011;5316;49.538;8.352;2023-08-20T21:08:00;5.68;;;3.67;;
10535;SDS011;5316;49.538;8.352;2023-08-20T21:10:38;4.30;;;3.00;;
10535;SDS011;5316;49.538;8.352;2023-08-20T21:13:14;5.30;;;2.97;;
10535;SDS011;5316;49.538;8.352;2023-08-20T21:15:44;5.88;;;3.15;;
10535;SDS011;5316;49.538;8.352;2023-08-20T21:18:13;3.97;;;2.97;;
10535;SDS011;5316;49.538;8.352;2023-08-20T21:20:42;3.72;;;3.33;;
10535;SDS011;5316;49.538;8.352;2023-08-20T21:23:13;3.42;;;3.13;;
10535;SDS011;5316;49.538;8.352;2023-08-20T21:28:58;3.80;;;3.47;;
10535;SDS011;5316;49.538;8.352;2023-08-20T21:31:26;3.78;;;3.13;;
10535;SDS011;5316;49.538;8.352;2023-08-20T21:33:55;4.57;;;3.40;;
10535;SDS011;5316;49.538;8.352;2023-08-20T21:36:49;5.00;;;3.00;;
10535;SDS011;5316;49.538;8.352;2023-08-20T21:40:29;3.75;;;3.20;;
10535;SDS011;5316;49.538;8.352;2023-08-20T22:00:02;5.18;;;3.13;;
10535;SDS011;5316;49.538;8.352;2023-08-20T22:02:31;5.75;;;2.80;;
10535;SDS011;5316;49.538;8.352;2023-08-20T22:05:09;3.70;;;3.40;;
10535;SDS011;5316;49.538;8.352;2023-08-20T22:07:41;4.40;;;3.40;;
10535;SDS011;5316;49.538;8.352;2023-08-20T22:10:15;3.95;;;3.53;;
10535;SDS011;5316;49.538;8.352;2023-08-20T22:29:38;4.43;;;3.78;;
10535;SDS011;5316;49.538;8.352;2023-08-20T22:32:08;4.07;;;3.65;;
10535;SDS011;5316;49.538;8.352;2023-08-20T22:35:08;4.97;;;3.92;;
10535;SDS011;5316;49.538;8.352;2023-08-20T22:38:38;5.22;;;4.00;;
10535;SDS011;5316;49.538;8.352;2023-08-20T22:42:06;5.10;;;4.07;;
10535;SDS011;5316;49.538;8.352;2023-08-20T22:44:52;6.22;;;3.65;;
10535;SDS011;5316;49.538;8.352;2023-08-20T22:47:52;4.72;;;4.20;;
10535;SDS011;5316;49.538;8.352;2023-08-20T22:50:55;3.83;;;3.53;;
10535;SDS011;5316;49.538;8.352;2023-08-20T22:53:50;3.95;;;3.53;;
10535;SDS011;5316;49.538;8.352;2023-08-20T22:57:02;5.47;;;3.55;;
10535;SDS011;5316;49.538;8.352;2023-08-20T23:03:13;6.28;;;5.72;;
10535;SDS011;5316;49.538;8.352;2023-08-20T23:05:43;5.75;;;5.32;;
10535;SDS011;5316;49.538;8.352;2023-08-20T23:08:31;3.67;;;3.28;;
10535;SDS011;5316;49.538;8.352;2023-08-20T23:11:14;3.92;;;3.35;;
10535;SDS011;5316;49.538;8.352;2023-08-20T23:14:02;3.90;;;3.67;;
10535;SDS011;5316;49.538;8.352;2023-08-20T23:16:51;4.30;;;3.90;;
10535;SDS011;5316;49.538;8.352;2023-08-20T23:25:58;4.22;;;3.83;;
10535;SDS011;5316;49.538;8.352;2023-08-20T23:28:26;4.45;;;4.15;;
10535;SDS011;5316;49.538;8.352;2023-08-20T23:30:55;4.60;;;4.20;;
10535;SDS011;5316;49.538;8.352;2023-08-20T23:33:40;4.05;;;3.78;;
10535;SDS011;5316;49.538;8.352;2023-08-20T23:36:20;4.57;;;4.13;;
10535;SDS011;5316;49.538;8.352;2023-08-20T23:38:49;4.80;;;4.05;;
10535;SDS011;5316;49.538;8.352;2023-08-20T23:41:22;3.85;;;3.55;;
10535;SDS011;5316;49.538;8.352;2023-08-20T23:44:22;4.60;;;4.20;;
10535;SDS011;5316;49.538;8.352;2023-08-20T23:47:17;5.35;;;4.47;;
10535;SDS011;5316;49.538;8.352;2023-08-20T23:50:09;4.25;;;3.85;;
10535;SDS011;5316;49.538;8.352;2023-08-20T23:52:58;4.40;;;4.00;;
10535;SDS011;5316;49.538;8.352;2023-08-20T23:55:26;4.28;;;4.00;;
10535;SDS011;5316;49.538;8.352;2023-08-20T23:57:57;5.50;;;4.13;;
